sensor_id;sensor_type;location;lat;lon;timestamp;P1;durP1;ratioP1;P2;durP2;ratioP2
69410;SDS011;56604;48.652;9.194;2023-01-01T00:00:04;8.70;;;6.43;;
69410;SDS011;56604;48.652;9.194;2023-01-01T00:02:31;6.73;;;5.70;;
69410;SDS011;56604;48.652;9.194;2023-01-01T00:04:56;10.00;;;6.43;;
69410;SDS011;56604;48.652;9.194;2023-01-01T00:07:22;9.90;;;6.57;;
69410;SDS011;56604;48.652;9.194;2023-01-01T00:09:47;10.97;;;7.83;;
69410;SDS011;56604;48.652;9.194;2023-01-01T00:12:31;8.40;;;6.73;;
69410;SDS011;56604;48.652;9.194;2023-01-01T00:14:57;6.87;;;5.80;;
69410;SDS011;56604;48.652;9.194;2023-01-01T00:17:22;10.43;;;6.60;;
69410;SDS011;56604;48.652;9.194;2023-01-01T00:19:47;7.60;;;5.93;;
69410;SDS011;56604;48.652;9.194;2023-01-01T00:22:13;6.83;;;5.10;;
69410;SDS011;56604;48.652;9.194;2023-01-01T00:24:38;10.77;;;5.17;;
69410;SDS011;56604;48.652;9.194;2023-01-01T00:27:03;6.47;;;5.87;;
69410;SDS011;56604;48.652;9.194;2023-01-01T00:29:28;6.80;;;5.40;;
69410;SDS011;56604;48.652;9.194;2023-01-01T00:31:54;8.00;;;5.93;;
69410;SDS011;56604;48.652;9.194;2023-01-01T00:34:19;8.60;;;6.40;;
69410;SDS011;56604;48.652;9.194;2023-01-01T00:36:44;10.63;;;6.00;;
69410;SDS011;56604;48.652;9.194;2023-01-01T00:39:10;8.93;;;5.70;;
69410;SDS011;56604;48.652;9.194;2023-01-01T00:41:35;10.00;;;7.00;;
69410;SDS011;56604;48.652;9.194;2023-01-01T00:44:00;8.97;;;7.10;;
69410;SDS011;56604;48.652;9.194;2023-01-01T00:46:26;8.37;;;6.70;;
69410;SDS011;56604;48.652;9.194;2023-01-01T00:48:51;9.37;;;6.37;;
69410;SDS011;56604;48.652;9.194;2023-01-01T00:51:16;11.83;;;7.70;;
69410;SDS011;56604;48.652;9.194;2023-01-01T00:53:41;9.17;;;7.17;;
69410;SDS011;56604;48.652;9.194;2023-01-01T00:56:07;9.50;;;7.03;;
69410;SDS011;56604;48.652;9.194;2023-01-01T00:58:32;14.77;;;7.40;;
69410;SDS011;56604;48.652;9.194;2023-01-01T01:00:58;10.10;;;7.63;;
69410;SDS011;56604;48.652;9.194;2023-01-01T01:03:24;14.30;;;8.40;;
69410;SDS011;56604;48.652;9.194;2023-01-01T01:06:05;14.20;;;8.70;;
69410;SDS011;56604;48.652;9.194;2023-01-01T01:08:33;15.40;;;10.20;;
69410;SDS011;56604;48.652;9.194;2023-01-01T01:11:10;15.43;;;9.63;;
69410;SDS011;56604;48.652;9.194;2023-01-01T01:13:40;18.80;;;10.70;;
69410;SDS011;56604;48.652;9.194;2023-01-01T01:16:11;16.17;;;10.63;;
69410;SDS011;56604;48.652;9.194;2023-01-01T01:18:51;17.93;;;10.43;;
69410;SDS011;56604;48.652;9.194;2023-01-01T01:21:18;16.90;;;10.80;;
69410;SDS011;56604;48.652;9.194;2023-01-01T01:23:45;20.73;;;10.90;;
69410;SDS011;56604;48.652;9.194;2023-01-01T01:26:15;19.00;;;11.30;;
69410;SDS011;56604;48.652;9.194;2023-01-01T01:28:43;18.60;;;10.47;;
69410;SDS011;56604;48.652;9.194;2023-01-01T01:31:09;15.17;;;10.43;;
69410;SDS011;56604;48.652;9.194;2023-01-01T01:33:35;21.50;;;11.80;;
69410;SDS011;56604;48.652;9.194;2023-01-01T01:36:01;16.10;;;9.80;;
69410;SDS011;56604;48.652;9.194;2023-01-01T01:38:27;18.83;;;10.93;;
69410;SDS011;56604;48.652;9.194;2023-01-01T01:40:53;17.43;;;10.87;;
69410;SDS011;56604;48.652;9.194;2023-01-01T01:43:22;21.53;;;12.60;;
69410;SDS011;56604;48.652;9.194;2023-01-01T01:45:58;17.80;;;11.00;;
69410;SDS011;56604;48.652;9.194;2023-01-01T01:48:28;17.53;;;11.60;;
69410;SDS011;56604;48.652;9.194;2023-01-01T01:51:00;26.40;;;12.43;;
69410;SDS011;56604;48.652;9.194;2023-01-01T01:53:26;20.77;;;12.87;;
69410;SDS011;56604;48.652;9.194;2023-01-01T01:55:55;22.03;;;12.50;;
69410;SDS011;56604;48.652;9.194;2023-01-01T01:58:24;24.90;;;13.33;;
69410;SDS011;56604;48.652;9.194;2023-01-01T02:00:52;21.87;;;12.50;;
69410;SDS011;56604;48.652;9.194;2023-01-01T02:06:01;19.13;;;12.00;;
69410;SDS011;56604;48.652;9.194;2023-01-01T02:08:27;20.53;;;11.80;;
69410;SDS011;56604;48.652;9.194;2023-01-01T02:10:54;19.10;;;12.03;;
69410;SDS011;56604;48.652;9.194;2023-01-01T02:13:19;19.50;;;12.17;;
69410;SDS011;56604;48.652;9.194;2023-01-01T02:15:47;15.27;;;10.73;;
69410;SDS011;56604;48.652;9.194;2023-01-01T02:18:19;23.90;;;10.73;;
69410;SDS011;56604;48.652;9.194;2023-01-01T02:20:53;18.07;;;11.97;;
69410;SDS011;56604;48.652;9.194;2023-01-01T02:23:55;16.97;;;11.50;;
69410;SDS011;56604;48.652;9.194;2023-01-01T02:26:28;19.77;;;11.83;;
69410;SDS011;56604;48.652;9.194;2023-01-01T02:29:11;20.00;;;11.23;;
69410;SDS011;56604;48.652;9.194;2023-01-01T02:34:42;15.10;;;10.50;;
69410;SDS011;56604;48.652;9.194;2023-01-01T02:37:12;14.17;;;10.10;;
69410;SDS011;56604;48.652;9.194;2023-01-01T02:39:43;16.97;;;10.17;;
69410;SDS011;56604;48.652;9.194;2023-01-01T02:42:12;19.50;;;10.83;;
69410;SDS011;56604;48.652;9.194;2023-01-01T02:44:38;17.27;;;11.40;;
69410;SDS011;56604;48.652;9.194;2023-01-01T02:47:09;18.43;;;10.50;;
69410;SDS011;56604;48.652;9.194;2023-01-01T02:49:48;18.40;;;9.97;;
69410;SDS011;56604;48.652;9.194;2023-01-01T02:54:59;17.60;;;10.47;;
69410;SDS011;56604;48.652;9.194;2023-01-01T02:57:34;19.70;;;10.27;;
69410;SDS011;56604;48.652;9.194;2023-01-01T03:00:04;13.70;;;10.20;;
69410;SDS011;56604;48.652;9.194;2023-01-01T03:05:56;12.10;;;8.57;;
69410;SDS011;56604;48.652;9.194;2023-01-01T03:11:41;13.77;;;8.43;;
69410;SDS011;56604;48.652;9.194;2023-01-01T03:14:25;13.93;;;8.60;;
69410;SDS011;56604;48.652;9.194;2023-01-01T03:16:56;11.27;;;8.33;;
69410;SDS011;56604;48.652;9.194;2023-01-01T03:19:29;10.27;;;7.80;;
69410;SDS011;56604;48.652;9.194;2023-01-01T03:22:06;12.30;;;7.07;;
69410;SDS011;56604;48.652;9.194;2023-01-01T03:24:38;15.37;;;7.70;;
69410;SDS011;56604;48.652;9.194;2023-01-01T03:27:30;12.73;;;8.00;;
69410;SDS011;56604;48.652;9.194;2023-01-01T03:30:02;7.93;;;6.40;;
69410;SDS011;56604;48.652;9.194;2023-01-01T03:32:54;10.83;;;7.03;;
69410;SDS011;56604;48.652;9.194;2023-01-01T03:35:47;9.30;;;6.50;;
69410;SDS011;56604;48.652;9.194;2023-01-01T03:38:28;8.23;;;5.87;;
69410;SDS011;56604;48.652;9.194;2023-01-01T03:41:09;8.97;;;6.03;;
69410;SDS011;56604;48.652;9.194;2023-01-01T03:46:26;9.60;;;6.13;;
69410;SDS011;56604;48.652;9.194;2023-01-01T03:48:54;10.20;;;5.90;;
69410;SDS011;56604;48.652;9.194;2023-01-01T03:51:30;9.37;;;6.37;;
69410;SDS011;56604;48.652;9.194;2023-01-01T03:54:27;7.63;;;6.10;;
69410;SDS011;56604;48.652;9.194;2023-01-01T04:02:35;8.67;;;5.60;;
69410;SDS011;56604;48.652;9.194;2023-01-01T04:05:08;6.53;;;5.63;;
69410;SDS011;56604;48.652;9.194;2023-01-01T04:07:34;9.47;;;5.90;;
69410;SDS011;56604;48.652;9.194;2023-01-01T04:10:01;9.30;;;5.60;;
69410;SDS011;56604;48.652;9.194;2023-01-01T04:12:40;7.10;;;5.57;;
69410;SDS011;56604;48.652;9.194;2023-01-01T04:15:08;9.03;;;5.20;;
69410;SDS011;56604;48.652;9.194;2023-01-01T04:17:33;7.10;;;5.40;;
69410;SDS011;56604;48.652;9.194;2023-01-01T04:19:59;7.77;;;5.80;;
69410;SDS011;56604;48.652;9.194;2023-01-01T04:22:24;6.77;;;5.03;;
69410;SDS011;56604;48.652;9.194;2023-01-01T04:24:49;6.97;;;5.40;;
69410;SDS011;56604;48.652;9.194;2023-01-01T04:27:15;9.00;;;6.13;;
69410;SDS011;56604;48.652;9.194;2023-01-01T04:29:40;7.17;;;5.80;;
69410;SDS011;56604;48.652;9.194;2023-01-01T04:32:05;10.70;;;5.93;;
69410;SDS011;56604;48.652;9.194;2023-01-01T04:34:31;6.93;;;5.53;;
69410;SDS011;56604;48.652;9.194;2023-01-01T04:36:56;10.90;;;6.60;;
69410;SDS011;56604;48.652;9.194;2023-01-01T04:39:21;7.53;;;5.40;;
69410;SDS011;56604;48.652;9.194;2023-01-01T04:41:47;7.20;;;5.37;;
69410;SDS011;56604;48.652;9.194;2023-01-01T04:44:12;9.03;;;5.83;;
69410;SDS011;56604;48.652;9.194;2023-01-01T04:46:37;6.57;;;5.57;;
69410;SDS011;56604;48.652;9.194;2023-01-01T04:49:02;11.90;;;5.40;;
69410;SDS011;56604;48.652;9.194;2023-01-01T04:51:28;6.30;;;4.87;;
69410;SDS011;56604;48.652;9.194;2023-01-01T04:53:53;5.57;;;4.73;;
69410;SDS011;56604;48.652;9.194;2023-01-01T04:56:19;15.43;;;5.50;;
69410;SDS011;56604;48.652;9.194;2023-01-01T04:58:45;5.67;;;4.70;;
69410;SDS011;56604;48.652;9.194;2023-01-01T05:01:13;6.23;;;5.00;;
69410;SDS011;56604;48.652;9.194;2023-01-01T05:03:49;8.07;;;5.17;;
69410;SDS011;56604;48.652;9.194;2023-01-01T05:06:14;5.40;;;4.90;;
69410;SDS011;56604;48.652;9.194;2023-01-01T05:08:41;7.60;;;4.70;;
69410;SDS011;56604;48.652;9.194;2023-01-01T05:11:10;4.70;;;4.20;;
69410;SDS011;56604;48.652;9.194;2023-01-01T05:13:59;8.80;;;5.07;;
69410;SDS011;56604;48.652;9.194;2023-01-01T05:16:26;4.50;;;4.10;;
69410;SDS011;56604;48.652;9.194;2023-01-01T05:18:52;7.43;;;4.33;;
69410;SDS011;56604;48.652;9.194;2023-01-01T05:21:19;5.03;;;4.17;;
69410;SDS011;56604;48.652;9.194;2023-01-01T05:23:46;6.10;;;3.67;;
69410;SDS011;56604;48.652;9.194;2023-01-01T05:26:16;7.70;;;5.30;;
69410;SDS011;56604;48.652;9.194;2023-01-01T05:28:43;4.77;;;4.00;;
69410;SDS011;56604;48.652;9.194;2023-01-01T05:31:13;5.13;;;4.20;;
69410;SDS011;56604;48.652;9.194;2023-01-01T05:33:40;6.33;;;4.30;;
69410;SDS011;56604;48.652;9.194;2023-01-01T05:36:06;6.70;;;4.33;;
69410;SDS011;56604;48.652;9.194;2023-01-01T05:38:33;5.70;;;4.33;;
69410;SDS011;56604;48.652;9.194;2023-01-01T05:41:03;5.73;;;4.60;;
69410;SDS011;56604;48.652;9.194;2023-01-01T05:43:33;4.97;;;4.33;;
69410;SDS011;56604;48.652;9.194;2023-01-01T05:46:02;4.47;;;4.07;;
69410;SDS011;56604;48.652;9.194;2023-01-01T05:48:31;4.13;;;3.60;;
69410;SDS011;56604;48.652;9.194;2023-01-01T05:51:05;4.30;;;3.70;;
69410;SDS011;56604;48.652;9.194;2023-01-01T05:53:38;4.53;;;3.80;;
69410;SDS011;56604;48.652;9.194;2023-01-01T05:56:03;4.63;;;4.23;;
69410;SDS011;56604;48.652;9.194;2023-01-01T05:58:29;9.60;;;3.87;;
69410;SDS011;56604;48.652;9.194;2023-01-01T06:00:55;3.53;;;3.33;;
69410;SDS011;56604;48.652;9.194;2023-01-01T06:03:21;5.17;;;4.70;;
69410;SDS011;56604;48.652;9.194;2023-01-01T06:05:47;8.40;;;4.17;;
69410;SDS011;56604;48.652;9.194;2023-01-01T06:08:12;4.00;;;3.63;;
69410;SDS011;56604;48.652;9.194;2023-01-01T06:10:38;4.70;;;4.20;;
69410;SDS011;56604;48.652;9.194;2023-01-01T06:13:03;5.73;;;5.13;;
69410;SDS011;56604;48.652;9.194;2023-01-01T06:15:29;6.17;;;4.70;;
69410;SDS011;56604;48.652;9.194;2023-01-01T06:17:54;4.90;;;4.20;;
69410;SDS011;56604;48.652;9.194;2023-01-01T06:20:20;7.90;;;4.57;;
69410;SDS011;56604;48.652;9.194;2023-01-01T06:22:45;4.60;;;3.90;;
69410;SDS011;56604;48.652;9.194;2023-01-01T06:25:10;4.20;;;3.57;;
69410;SDS011;56604;48.652;9.194;2023-01-01T06:27:36;7.07;;;4.00;;
69410;SDS011;56604;48.652;9.194;2023-01-01T06:30:02;5.33;;;4.17;;
69410;SDS011;56604;48.652;9.194;2023-01-01T06:32:29;8.77;;;4.40;;
69410;SDS011;56604;48.652;9.194;2023-01-01T06:34:54;9.83;;;4.13;;
69410;SDS011;56604;48.652;9.194;2023-01-01T06:37:20;4.57;;;3.40;;
69410;SDS011;56604;48.652;9.194;2023-01-01T06:39:45;4.10;;;3.70;;
69410;SDS011;56604;48.652;9.194;2023-01-01T06:42:10;3.57;;;3.23;;
69410;SDS011;56604;48.652;9.194;2023-01-01T06:44:36;7.57;;;3.67;;
69410;SDS011;56604;48.652;9.194;2023-01-01T06:47:01;3.50;;;3.20;;
69410;SDS011;56604;48.652;9.194;2023-01-01T06:49:26;3.80;;;2.67;;
69410;SDS011;56604;48.652;9.194;2023-01-01T06:51:51;2.97;;;2.70;;
69410;SDS011;56604;48.652;9.194;2023-01-01T06:54:17;2.63;;;2.43;;
69410;SDS011;56604;48.652;9.194;2023-01-01T06:56:42;2.97;;;2.70;;
69410;SDS011;56604;48.652;9.194;2023-01-01T06:59:08;3.07;;;2.87;;
69410;SDS011;56604;48.652;9.194;2023-01-01T07:01:33;3.23;;;3.00;;
69410;SDS011;56604;48.652;9.194;2023-01-01T07:04:01;4.00;;;3.17;;
69410;SDS011;56604;48.652;9.194;2023-01-01T07:06:29;3.00;;;2.80;;
69410;SDS011;56604;48.652;9.194;2023-01-01T07:08:55;5.37;;;2.50;;
69410;SDS011;56604;48.652;9.194;2023-01-01T07:11:21;2.77;;;2.50;;
69410;SDS011;56604;48.652;9.194;2023-01-01T07:13:47;3.33;;;3.03;;
69410;SDS011;56604;48.652;9.194;2023-01-01T07:16:12;4.37;;;3.27;;
69410;SDS011;56604;48.652;9.194;2023-01-01T07:18:38;16.93;;;3.07;;
69410;SDS011;56604;48.652;9.194;2023-01-01T07:21:04;6.03;;;3.30;;
69410;SDS011;56604;48.652;9.194;2023-01-01T07:23:32;3.73;;;3.43;;
69410;SDS011;56604;48.652;9.194;2023-01-01T07:25:58;8.70;;;3.87;;
69410;SDS011;56604;48.652;9.194;2023-01-01T07:28:24;5.23;;;3.60;;
69410;SDS011;56604;48.652;9.194;2023-01-01T07:30:50;9.50;;;3.50;;
69410;SDS011;56604;48.652;9.194;2023-01-01T07:33:18;6.47;;;4.07;;
69410;SDS011;56604;48.652;9.194;2023-01-01T07:35:45;9.13;;;3.90;;
69410;SDS011;56604;48.652;9.194;2023-01-01T07:38:11;4.23;;;3.27;;
69410;SDS011;56604;48.652;9.194;2023-01-01T07:40:37;4.83;;;3.30;;
69410;SDS011;56604;48.652;9.194;2023-01-01T07:43:03;3.90;;;3.53;;
69410;SDS011;56604;48.652;9.194;2023-01-01T07:45:29;6.10;;;3.40;;
69410;SDS011;56604;48.652;9.194;2023-01-01T07:47:55;2.60;;;2.47;;
69410;SDS011;56604;48.652;9.194;2023-01-01T07:50:22;8.80;;;3.57;;
69410;SDS011;56604;48.652;9.194;2023-01-01T07:52:49;10.40;;;3.30;;
69410;SDS011;56604;48.652;9.194;2023-01-01T07:55:15;3.87;;;3.50;;
69410;SDS011;56604;48.652;9.194;2023-01-01T07:57:42;9.10;;;3.80;;
69410;SDS011;56604;48.652;9.194;2023-01-01T08:00:09;5.37;;;3.70;;
69410;SDS011;56604;48.652;9.194;2023-01-01T08:02:36;4.67;;;3.43;;
69410;SDS011;56604;48.652;9.194;2023-01-01T08:05:02;3.70;;;3.47;;
69410;SDS011;56604;48.652;9.194;2023-01-01T08:07:27;7.40;;;4.10;;
69410;SDS011;56604;48.652;9.194;2023-01-01T08:09:52;3.63;;;3.43;;
69410;SDS011;56604;48.652;9.194;2023-01-01T08:12:18;4.50;;;3.43;;
69410;SDS011;56604;48.652;9.194;2023-01-01T08:14:43;3.73;;;3.23;;
69410;SDS011;56604;48.652;9.194;2023-01-01T08:17:08;6.80;;;3.10;;
69410;SDS011;56604;48.652;9.194;2023-01-01T08:19:34;3.63;;;3.33;;
69410;SDS011;56604;48.652;9.194;2023-01-01T08:21:59;5.10;;;3.43;;
69410;SDS011;56604;48.652;9.194;2023-01-01T08:24:24;4.20;;;3.83;;
69410;SDS011;56604;48.652;9.194;2023-01-01T08:26:50;3.77;;;3.47;;
69410;SDS011;56604;48.652;9.194;2023-01-01T08:29:15;3.90;;;3.43;;
69410;SDS011;56604;48.652;9.194;2023-01-01T08:31:41;5.07;;;3.70;;
69410;SDS011;56604;48.652;9.194;2023-01-01T08:34:06;3.83;;;3.33;;
69410;SDS011;56604;48.652;9.194;2023-01-01T08:36:32;5.67;;;3.37;;
69410;SDS011;56604;48.652;9.194;2023-01-01T08:38:57;4.23;;;3.20;;
69410;SDS011;56604;48.652;9.194;2023-01-01T08:41:23;6.00;;;3.63;;
69410;SDS011;56604;48.652;9.194;2023-01-01T08:43:48;8.83;;;3.30;;
69410;SDS011;56604;48.652;9.194;2023-01-01T08:46:14;4.40;;;3.40;;
69410;SDS011;56604;48.652;9.194;2023-01-01T08:48:39;8.53;;;4.10;;
69410;SDS011;56604;48.652;9.194;2023-01-01T08:51:04;5.50;;;3.50;;
69410;SDS011;56604;48.652;9.194;2023-01-01T08:53:30;7.33;;;3.63;;
69410;SDS011;56604;48.652;9.194;2023-01-01T08:56:00;4.20;;;3.60;;
69410;SDS011;56604;48.652;9.194;2023-01-01T08:58:28;8.57;;;4.00;;
69410;SDS011;56604;48.652;9.194;2023-01-01T09:00:54;6.03;;;3.43;;
69410;SDS011;56604;48.652;9.194;2023-01-01T09:03:19;5.63;;;3.50;;
69410;SDS011;56604;48.652;9.194;2023-01-01T09:05:45;4.80;;;3.20;;
69410;SDS011;56604;48.652;9.194;2023-01-01T09:08:11;4.73;;;3.87;;
69410;SDS011;56604;48.652;9.194;2023-01-01T09:10:37;3.43;;;3.13;;
69410;SDS011;56604;48.652;9.194;2023-01-01T09:13:02;6.63;;;3.30;;
69410;SDS011;56604;48.652;9.194;2023-01-01T09:15:28;8.23;;;3.80;;
69410;SDS011;56604;48.652;9.194;2023-01-01T09:17:53;5.73;;;3.80;;
69410;SDS011;56604;48.652;9.194;2023-01-01T09:20:18;5.37;;;3.70;;
69410;SDS011;56604;48.652;9.194;2023-01-01T09:22:44;4.50;;;3.57;;
69410;SDS011;56604;48.652;9.194;2023-01-01T09:25:09;4.40;;;3.90;;
69410;SDS011;56604;48.652;9.194;2023-01-01T09:27:34;3.80;;;3.50;;
69410;SDS011;56604;48.652;9.194;2023-01-01T09:30:00;4.10;;;3.40;;
69410;SDS011;56604;48.652;9.194;2023-01-01T09:32:25;4.93;;;3.20;;
69410;SDS011;56604;48.652;9.194;2023-01-01T09:34:50;3.50;;;3.20;;
69410;SDS011;56604;48.652;9.194;2023-01-01T09:37:16;4.00;;;3.10;;
69410;SDS011;56604;48.652;9.194;2023-01-01T09:39:41;10.10;;;3.20;;
69410;SDS011;56604;48.652;9.194;2023-01-01T09:49:46;4.37;;;2.97;;
69410;SDS011;56604;48.652;9.194;2023-01-01T09:52:14;8.77;;;3.30;;
69410;SDS011;56604;48.652;9.194;2023-01-01T09:54:57;13.40;;;4.07;;
69410;SDS011;56604;48.652;9.194;2023-01-01T09:57:28;7.10;;;4.30;;
69410;SDS011;56604;48.652;9.194;2023-01-01T09:59:56;8.00;;;3.60;;
69410;SDS011;56604;48.652;9.194;2023-01-01T10:02:31;7.40;;;3.97;;
69410;SDS011;56604;48.652;9.194;2023-01-01T10:05:20;6.73;;;3.60;;
69410;SDS011;56604;48.652;9.194;2023-01-01T10:10:35;6.73;;;3.50;;
69410;SDS011;56604;48.652;9.194;2023-01-01T10:15:32;5.90;;;3.07;;
69410;SDS011;56604;48.652;9.194;2023-01-01T10:18:07;5.07;;;3.60;;
69410;SDS011;56604;48.652;9.194;2023-01-01T10:20:45;4.37;;;3.27;;
69410;SDS011;56604;48.652;9.194;2023-01-01T10:23:19;11.70;;;3.80;;
69410;SDS011;56604;48.652;9.194;2023-01-01T10:25:49;8.53;;;3.63;;
69410;SDS011;56604;48.652;9.194;2023-01-01T10:28:17;4.23;;;3.60;;
69410;SDS011;56604;48.652;9.194;2023-01-01T10:30:47;5.93;;;3.60;;
69410;SDS011;56604;48.652;9.194;2023-01-01T10:33:15;6.83;;;3.57;;
69410;SDS011;56604;48.652;9.194;2023-01-01T10:35:42;8.10;;;3.60;;
69410;SDS011;56604;48.652;9.194;2023-01-01T10:38:16;6.47;;;3.30;;
69410;SDS011;56604;48.652;9.194;2023-01-01T10:40:46;9.67;;;3.90;;
69410;SDS011;56604;48.652;9.194;2023-01-01T10:43:12;4.40;;;3.07;;
69410;SDS011;56604;48.652;9.194;2023-01-01T10:45:42;5.20;;;2.80;;
69410;SDS011;56604;48.652;9.194;2023-01-01T10:48:11;5.47;;;2.87;;
69410;SDS011;56604;48.652;9.194;2023-01-01T10:50:49;4.30;;;2.73;;
69410;SDS011;56604;48.652;9.194;2023-01-01T10:53:18;7.80;;;3.10;;
69410;SDS011;56604;48.652;9.194;2023-01-01T10:55:56;5.70;;;2.67;;
69410;SDS011;56604;48.652;9.194;2023-01-01T11:01:00;5.23;;;2.70;;
69410;SDS011;56604;48.652;9.194;2023-01-01T11:03:27;9.90;;;3.07;;
69410;SDS011;56604;48.652;9.194;2023-01-01T11:05:58;6.03;;;2.70;;
69410;SDS011;56604;48.652;9.194;2023-01-01T11:08:27;7.90;;;3.50;;
69410;SDS011;56604;48.652;9.194;2023-01-01T11:10:55;3.47;;;2.70;;
69410;SDS011;56604;48.652;9.194;2023-01-01T11:13:22;6.10;;;3.07;;
69410;SDS011;56604;48.652;9.194;2023-01-01T11:15:48;2.63;;;2.40;;
69410;SDS011;56604;48.652;9.194;2023-01-01T11:18:15;3.80;;;2.37;;
69410;SDS011;56604;48.652;9.194;2023-01-01T11:20:55;3.13;;;2.40;;
69410;SDS011;56604;48.652;9.194;2023-01-01T11:28:41;9.83;;;2.90;;
69410;SDS011;56604;48.652;9.194;2023-01-01T11:31:14;5.33;;;2.60;;
69410;SDS011;56604;48.652;9.194;2023-01-01T11:33:43;7.83;;;2.97;;
69410;SDS011;56604;48.652;9.194;2023-01-01T11:41:51;2.60;;;2.40;;
69410;SDS011;56604;48.652;9.194;2023-01-01T11:44:26;5.87;;;2.40;;
69410;SDS011;56604;48.652;9.194;2023-01-01T11:46:57;6.67;;;2.47;;
69410;SDS011;56604;48.652;9.194;2023-01-01T11:49:24;3.27;;;2.30;;
69410;SDS011;56604;48.652;9.194;2023-01-01T11:51:52;8.80;;;2.80;;
69410;SDS011;56604;48.652;9.194;2023-01-01T11:54:24;2.83;;;2.63;;
69410;SDS011;56604;48.652;9.194;2023-01-01T11:57:03;4.57;;;2.83;;
69410;SDS011;56604;48.652;9.194;2023-01-01T11:59:52;7.00;;;2.70;;
69410;SDS011;56604;48.652;9.194;2023-01-01T12:02:29;7.80;;;3.00;;
69410;SDS011;56604;48.652;9.194;2023-01-01T12:05:21;5.17;;;2.73;;
69410;SDS011;56604;48.652;9.194;2023-01-01T12:07:49;9.97;;;4.00;;
69410;SDS011;56604;48.652;9.194;2023-01-01T12:10:23;5.10;;;3.23;;
69410;SDS011;56604;48.652;9.194;2023-01-01T12:13:02;8.10;;;2.30;;
69410;SDS011;56604;48.652;9.194;2023-01-01T12:15:34;9.80;;;3.00;;
69410;SDS011;56604;48.652;9.194;2023-01-01T12:18:15;7.27;;;2.83;;
69410;SDS011;56604;48.652;9.194;2023-01-01T12:21:12;5.43;;;2.53;;
69410;SDS011;56604;48.652;9.194;2023-01-01T12:23:42;3.23;;;2.30;;
69410;SDS011;56604;48.652;9.194;2023-01-01T12:26:24;4.23;;;2.57;;
69410;SDS011;56604;48.652;9.194;2023-01-01T12:29:06;7.33;;;3.13;;
69410;SDS011;56604;48.652;9.194;2023-01-01T12:32:00;8.47;;;3.07;;
69410;SDS011;56604;48.652;9.194;2023-01-01T12:34:59;4.93;;;2.93;;
69410;SDS011;56604;48.652;9.194;2023-01-01T12:37:42;6.80;;;2.50;;
69410;SDS011;56604;48.652;9.194;2023-01-01T12:40:29;3.63;;;1.80;;
69410;SDS011;56604;48.652;9.194;2023-01-01T12:43:02;5.53;;;2.27;;
69410;SDS011;56604;48.652;9.194;2023-01-01T12:48:06;12.13;;;2.60;;
69410;SDS011;56604;48.652;9.194;2023-01-01T12:54:33;3.17;;;2.50;;
69410;SDS011;56604;48.652;9.194;2023-01-01T12:56:48;10.00;;;2.80;;
69410;SDS011;56604;48.652;9.194;2023-01-01T12:59:21;11.43;;;3.47;;
69410;SDS011;56604;48.652;9.194;2023-01-01T13:01:53;14.93;;;2.83;;
69410;SDS011;56604;48.652;9.194;2023-01-01T13:04:21;10.63;;;2.60;;
69410;SDS011;56604;48.652;9.194;2023-01-01T13:06:48;6.70;;;2.70;;
69410;SDS011;56604;48.652;9.194;2023-01-01T13:09:37;6.33;;;2.93;;
69410;SDS011;56604;48.652;9.194;2023-01-01T13:12:07;7.00;;;2.50;;
69410;SDS011;56604;48.652;9.194;2023-01-01T13:14:37;4.77;;;2.43;;
69410;SDS011;56604;48.652;9.194;2023-01-01T13:17:03;4.17;;;2.40;;
69410;SDS011;56604;48.652;9.194;2023-01-01T13:21:54;4.27;;;2.57;;
69410;SDS011;56604;48.652;9.194;2023-01-01T13:24:23;16.33;;;2.30;;
69410;SDS011;56604;48.652;9.194;2023-01-01T13:26:49;7.90;;;3.00;;
69410;SDS011;56604;48.652;9.194;2023-01-01T14:04:38;6.77;;;3.10;;
69410;SDS011;56604;48.652;9.194;2023-01-01T14:07:16;5.13;;;2.60;;
69410;SDS011;56604;48.652;9.194;2023-01-01T14:09:43;5.20;;;2.60;;
69410;SDS011;56604;48.652;9.194;2023-01-01T14:12:09;14.97;;;3.67;;
69410;SDS011;56604;48.652;9.194;2023-01-01T14:14:40;4.63;;;3.03;;
69410;SDS011;56604;48.652;9.194;2023-01-01T14:17:06;12.67;;;3.07;;
69410;SDS011;56604;48.652;9.194;2023-01-01T14:19:32;6.77;;;3.53;;
69410;SDS011;56604;48.652;9.194;2023-01-01T14:21:58;7.97;;;2.80;;
69410;SDS011;56604;48.652;9.194;2023-01-01T14:24:24;8.53;;;3.30;;
69410;SDS011;56604;48.652;9.194;2023-01-01T14:26:51;5.83;;;3.53;;
69410;SDS011;56604;48.652;9.194;2023-01-01T14:29:36;10.03;;;3.60;;
69410;SDS011;56604;48.652;9.194;2023-01-01T14:32:13;12.07;;;3.07;;
69410;SDS011;56604;48.652;9.194;2023-01-01T14:34:39;10.13;;;3.40;;
69410;SDS011;56604;48.652;9.194;2023-01-01T14:37:18;6.13;;;3.10;;
69410;SDS011;56604;48.652;9.194;2023-01-01T14:39:49;8.93;;;3.40;;
69410;SDS011;56604;48.652;9.194;2023-01-01T14:42:41;10.30;;;3.37;;
69410;SDS011;56604;48.652;9.194;2023-01-01T14:45:17;8.03;;;3.40;;
69410;SDS011;56604;48.652;9.194;2023-01-01T14:47:45;10.97;;;4.03;;
69410;SDS011;56604;48.652;9.194;2023-01-01T14:50:24;4.03;;;3.63;;
69410;SDS011;56604;48.652;9.194;2023-01-01T14:53:01;9.47;;;3.33;;
69410;SDS011;56604;48.652;9.194;2023-01-01T14:55:39;5.63;;;3.60;;
69410;SDS011;56604;48.652;9.194;2023-01-01T14:58:21;8.60;;;3.47;;
69410;SDS011;56604;48.652;9.194;2023-01-01T15:00:49;10.47;;;4.00;;
69410;SDS011;56604;48.652;9.194;2023-01-01T15:03:19;19.93;;;3.80;;
69410;SDS011;56604;48.652;9.194;2023-01-01T15:05:56;7.50;;;3.20;;
69410;SDS011;56604;48.652;9.194;2023-01-01T15:08:23;12.67;;;3.67;;
69410;SDS011;56604;48.652;9.194;2023-01-01T15:10:51;7.53;;;4.23;;
69410;SDS011;56604;48.652;9.194;2023-01-01T15:13:19;15.10;;;4.87;;
69410;SDS011;56604;48.652;9.194;2023-01-01T15:15:48;8.53;;;4.40;;
69410;SDS011;56604;48.652;9.194;2023-01-01T15:21:49;13.00;;;3.40;;
69410;SDS011;56604;48.652;9.194;2023-01-01T15:24:08;5.70;;;3.63;;
69410;SDS011;56604;48.652;9.194;2023-01-01T15:29:09;11.00;;;3.60;;
69410;SDS011;56604;48.652;9.194;2023-01-01T15:31:43;7.73;;;3.83;;
69410;SDS011;56604;48.652;9.194;2023-01-01T15:34:20;3.70;;;3.30;;
69410;SDS011;56604;48.652;9.194;2023-01-01T15:36:49;6.50;;;4.10;;
69410;SDS011;56604;48.652;9.194;2023-01-01T15:39:16;5.70;;;3.30;;
69410;SDS011;56604;48.652;9.194;2023-01-01T15:41:44;3.73;;;3.30;;
69410;SDS011;56604;48.652;9.194;2023-01-01T15:44:19;7.53;;;2.73;;
69410;SDS011;56604;48.652;9.194;2023-01-01T15:47:01;12.13;;;2.90;;
69410;SDS011;56604;48.652;9.194;2023-01-01T15:49:29;3.90;;;2.50;;
69410;SDS011;56604;48.652;9.194;2023-01-01T15:51:58;13.00;;;3.83;;
69410;SDS011;56604;48.652;9.194;2023-01-01T15:54:28;11.40;;;2.80;;
69410;SDS011;56604;48.652;9.194;2023-01-01T15:56:54;4.10;;;2.53;;
69410;SDS011;56604;48.652;9.194;2023-01-01T15:59:30;2.53;;;2.33;;
69410;SDS011;56604;48.652;9.194;2023-01-01T16:02:03;3.43;;;3.13;;
69410;SDS011;56604;48.652;9.194;2023-01-01T16:04:34;6.47;;;3.00;;
69410;SDS011;56604;48.652;9.194;2023-01-01T16:07:00;3.30;;;3.00;;
69410;SDS011;56604;48.652;9.194;2023-01-01T16:09:26;5.23;;;3.20;;
69410;SDS011;56604;48.652;9.194;2023-01-01T16:11:52;12.53;;;2.80;;
69410;SDS011;56604;48.652;9.194;2023-01-01T16:14:18;6.83;;;2.50;;
69410;SDS011;56604;48.652;9.194;2023-01-01T16:16:46;8.93;;;3.20;;
69410;SDS011;56604;48.652;9.194;2023-01-01T16:19:15;12.23;;;2.63;;
69410;SDS011;56604;48.652;9.194;2023-01-01T16:21:41;3.83;;;2.80;;
69410;SDS011;56604;48.652;9.194;2023-01-01T16:24:10;6.67;;;2.47;;
69410;SDS011;56604;48.652;9.194;2023-01-01T16:26:38;6.67;;;2.77;;
69410;SDS011;56604;48.652;9.194;2023-01-01T16:29:04;4.73;;;2.87;;
69410;SDS011;56604;48.652;9.194;2023-01-01T16:31:29;4.03;;;2.80;;
69410;SDS011;56604;48.652;9.194;2023-01-01T16:33:55;8.87;;;2.90;;
69410;SDS011;56604;48.652;9.194;2023-01-01T16:36:22;7.20;;;2.77;;